sensor_id;sensor_type;location;lat;lon;timestamp;temperature;humidity
10828;DHT22;5467;59.334;13.512;2023-03-04T00:01:33;1.80;99.90
10828;DHT22;5467;59.334;13.512;2023-03-04T00:04:00;1.80;99.90
10828;DHT22;5467;59.334;13.512;2023-03-04T00:06:27;1.80;99.90
10828;DHT22;5467;59.334;13.512;2023-03-04T00:08:54;1.80;99.90
10828;DHT22;5467;59.334;13.512;2023-03-04T00:11:22;1.80;99.90
10828;DHT22;5467;59.334;13.512;2023-03-04T00:13:49;1.80;99.90
10828;DHT22;5467;59.334;13.512;2023-03-04T00:16:16;1.70;99.90
10828;DHT22;5467;59.334;13.512;2023-03-04T00:18:44;1.70;99.90
10828;DHT22;5467;59.334;13.512;2023-03-04T00:21:11;1.70;99.90
10828;DHT22;5467;59.334;13.512;2023-03-04T00:23:38;1.70;99.90
10828;DHT22;5467;59.334;13.512;2023-03-04T00:26:08;1.60;99.90
10828;DHT22;5467;59.334;13.512;2023-03-04T00:28:35;1.60;99.90
10828;DHT22;5467;59.334;13.512;2023-03-04T00:31:03;1.50;99.90
10828;DHT22;5467;59.334;13.512;2023-03-04T00:33:30;1.50;99.90
10828;DHT22;5467;59.334;13.512;2023-03-04T00:35:59;1.40;99.90
10828;DHT22;5467;59.334;13.512;2023-03-04T00:38:26;1.40;99.90
10828;DHT22;5467;59.334;13.512;2023-03-04T00:40:53;1.30;99.90
10828;DHT22;5467;59.334;13.512;2023-03-04T00:43:20;1.30;99.90
10828;DHT22;5467;59.334;13.512;2023-03-04T00:45:47;1.30;99.90
10828;DHT22;5467;59.334;13.512;2023-03-04T00:48:15;1.40;99.90
10828;DHT22;5467;59.334;13.512;2023-03-04T00:50:42;1.30;99.90
10828;DHT22;5467;59.334;13.512;2023-03-04T00:53:11;1.30;99.90
10828;DHT22;5467;59.334;13.512;2023-03-04T00:55:38;1.30;99.90
10828;DHT22;5467;59.334;13.512;2023-03-04T00:58:05;1.30;99.90
10828;DHT22;5467;59.334;13.512;2023-03-04T01:00:32;1.30;99.90
10828;DHT22;5467;59.334;13.512;2023-03-04T01:02:59;1.30;99.90
10828;DHT22;5467;59.334;13.512;2023-03-04T01:05:26;1.20;99.90
10828;DHT22;5467;59.334;13.512;2023-03-04T01:07:54;1.20;99.90
10828;DHT22;5467;59.334;13.512;2023-03-04T01:10:22;1.30;99.90
10828;DHT22;5467;59.334;13.512;2023-03-04T01:12:49;1.30;99.90
10828;DHT22;5467;59.334;13.512;2023-03-04T01:15:16;1.30;99.90
10828;DHT22;5467;59.334;13.512;2023-03-04T01:17:43;1.20;99.90
10828;DHT22;5467;59.334;13.512;2023-03-04T01:20:12;1.20;99.90
10828;DHT22;5467;59.334;13.512;2023-03-04T01:22:39;1.20;99.90
10828;DHT22;5467;59.334;13.512;2023-03-04T01:25:08;1.30;99.90
10828;DHT22;5467;59.334;13.512;2023-03-04T01:27:37;1.30;99.90
10828;DHT22;5467;59.334;13.512;2023-03-04T01:30:05;1.20;99.90
10828;DHT22;5467;59.334;13.512;2023-03-04T01:32:32;1.20;99.90
10828;DHT22;5467;59.334;13.512;2023-03-04T01:34:59;1.20;99.90
10828;DHT22;5467;59.334;13.512;2023-03-04T01:37:26;1.10;99.90
10828;DHT22;5467;59.334;13.512;2023-03-04T01:39:53;1.10;99.90
10828;DHT22;5467;59.334;13.512;2023-03-04T01:42:21;1.00;99.90
10828;DHT22;5467;59.334;13.512;2023-03-04T01:44:51;1.00;99.90
10828;DHT22;5467;59.334;13.512;2023-03-04T01:47:18;1.00;99.90
10828;DHT22;5467;59.334;13.512;2023-03-04T01:49:53;0.90;99.90
10828;DHT22;5467;59.334;13.512;2023-03-04T01:52:22;0.90;99.90
10828;DHT22;5467;59.334;13.512;2023-03-04T01:54:49;1.00;99.90
10828;DHT22;5467;59.334;13.512;2023-03-04T01:57:18;1.00;99.90
10828;DHT22;5467;59.334;13.512;2023-03-04T01:59:46;0.90;99.90
10828;DHT22;5467;59.334;13.512;2023-03-04T02:02:15;0.80;99.90
10828;DHT22;5467;59.334;13.512;2023-03-04T02:04:42;0.80;99.90
10828;DHT22;5467;59.334;13.512;2023-03-04T02:07:09;0.70;99.90
10828;DHT22;5467;59.334;13.512;2023-03-04T02:09:36;0.70;99.90
10828;DHT22;5467;59.334;13.512;2023-03-04T02:12:04;0.60;99.90
10828;DHT22;5467;59.334;13.512;2023-03-04T02:14:31;0.70;99.90
10828;DHT22;5467;59.334;13.512;2023-03-04T02:16:58;0.60;99.90
10828;DHT22;5467;59.334;13.512;2023-03-04T02:19:41;0.50;99.90
10828;DHT22;5467;59.334;13.512;2023-03-04T02:22:10;0.50;99.90
10828;DHT22;5467;59.334;13.512;2023-03-04T02:24:41;0.50;99.90
10828;DHT22;5467;59.334;13.512;2023-03-04T02:27:11;0.40;99.90
10828;DHT22;5467;59.334;13.512;2023-03-04T02:29:38;0.50;99.90
10828;DHT22;5467;59.334;13.512;2023-03-04T02:32:05;0.50;99.90
10828;DHT22;5467;59.334;13.512;2023-03-04T02:34:33;0.50;99.90
10828;DHT22;5467;59.334;13.512;2023-03-04T02:37:02;0.40;99.90
10828;DHT22;5467;59.334;13.512;2023-03-04T02:39:32;0.40;99.90
10828;DHT22;5467;59.334;13.512;2023-03-04T02:42:00;0.40;99.90
10828;DHT22;5467;59.334;13.512;2023-03-04T02:44:31;0.40;99.90
10828;DHT22;5467;59.334;13.512;2023-03-04T02:47:00;0.30;99.90
10828;DHT22;5467;59.334;13.512;2023-03-04T02:49:29;0.30;99.90
10828;DHT22;5467;59.334;13.512;2023-03-04T02:52:02;0.30;99.90
10828;DHT22;5467;59.334;13.512;2023-03-04T02:54:29;0.30;99.90
10828;DHT22;5467;59.334;13.512;2023-03-04T02:56:59;0.30;99.90
10828;DHT22;5467;59.334;13.512;2023-03-04T02:59:26;0.20;99.90
10828;DHT22;5467;59.334;13.512;2023-03-04T03:01:55;0.20;99.90
10828;DHT22;5467;59.334;13.512;2023-03-04T03:04:22;0.20;99.90
10828;DHT22;5467;59.334;13.512;2023-03-04T03:06:50;0.20;99.90
10828;DHT22;5467;59.334;13.512;2023-03-04T03:09:18;0.10;99.90
10828;DHT22;5467;59.334;13.512;2023-03-04T03:11:45;0.10;99.90
10828;DHT22;5467;59.334;13.512;2023-03-04T03:14:12;0.00;99.90
10828;DHT22;5467;59.334;13.512;2023-03-04T03:16:40;0.00;99.90
10828;DHT22;5467;59.334;13.512;2023-03-04T03:19:09;-0.10;99.90
10828;DHT22;5467;59.334;13.512;2023-03-04T03:21:36;-0.10;99.90
10828;DHT22;5467;59.334;13.512;2023-03-04T03:24:03;-0.10;99.90
10828;DHT22;5467;59.334;13.512;2023-03-04T03:26:30;-0.10;99.90
10828;DHT22;5467;59.334;13.512;2023-03-04T03:28:57;-0.20;99.90
10828;DHT22;5467;59.334;13.512;2023-03-04T03:31:25;-0.20;99.90
10828;DHT22;5467;59.334;13.512;2023-03-04T03:33:52;-0.20;99.90
10828;DHT22;5467;59.334;13.512;2023-03-04T03:36:20;-0.30;99.90
10828;DHT22;5467;59.334;13.512;2023-03-04T03:38:47;-0.30;99.90
10828;DHT22;5467;59.334;13.512;2023-03-04T03:41:14;-0.30;99.90
10828;DHT22;5467;59.334;13.512;2023-03-04T03:43:42;-0.30;99.90
10828;DHT22;5467;59.334;13.512;2023-03-04T03:46:09;-0.40;99.90
10828;DHT22;5467;59.334;13.512;2023-03-04T03:48:36;-0.40;99.90
10828;DHT22;5467;59.334;13.512;2023-03-04T03:51:04;-0.40;99.90
10828;DHT22;5467;59.334;13.512;2023-03-04T03:53:32;-0.30;99.90
10828;DHT22;5467;59.334;13.512;2023-03-04T03:55:59;-0.40;99.90
10828;DHT22;5467;59.334;13.512;2023-03-04T03:58:27;-0.50;99.90
10828;DHT22;5467;59.334;13.512;2023-03-04T04:00:54;-0.50;99.90
10828;DHT22;5467;59.334;13.512;2023-03-04T04:03:21;-0.50;99.90
10828;DHT22;5467;59.334;13.512;2023-03-04T04:05:48;-0.50;99.90
10828;DHT22;5467;59.334;13.512;2023-03-04T04:08:16;-0.50;99.90
10828;DHT22;5467;59.334;13.512;2023-03-04T04:10:44;-0.60;99.90
10828;DHT22;5467;59.334;13.512;2023-03-04T04:13:11;-0.60;99.90
10828;DHT22;5467;59.334;13.512;2023-03-04T04:15:39;-0.60;99.90
10828;DHT22;5467;59.334;13.512;2023-03-04T04:18:07;-0.70;99.90
10828;DHT22;5467;59.334;13.512;2023-03-04T04:20:34;-0.80;99.90
10828;DHT22;5467;59.334;13.512;2023-03-04T04:23:02;-0.80;99.90
10828;DHT22;5467;59.334;13.512;2023-03-04T04:25:29;-0.80;99.90
10828;DHT22;5467;59.334;13.512;2023-03-04T04:27:58;-0.80;99.90
10828;DHT22;5467;59.334;13.512;2023-03-04T04:30:25;-0.70;99.90
10828;DHT22;5467;59.334;13.512;2023-03-04T04:32:52;-0.80;99.90
10828;DHT22;5467;59.334;13.512;2023-03-04T04:35:20;-0.80;99.90
10828;DHT22;5467;59.334;13.512;2023-03-04T04:37:47;-0.90;99.90
10828;DHT22;5467;59.334;13.512;2023-03-04T04:40:14;-0.80;99.90
10828;DHT22;5467;59.334;13.512;2023-03-04T04:42:42;-0.80;99.90
10828;DHT22;5467;59.334;13.512;2023-03-04T04:45:10;-0.70;99.90
10828;DHT22;5467;59.334;13.512;2023-03-04T04:47:38;-0.80;99.90
10828;DHT22;5467;59.334;13.512;2023-03-04T04:50:05;-0.80;99.90
10828;DHT22;5467;59.334;13.512;2023-03-04T04:52:33;-0.90;99.90
10828;DHT22;5467;59.334;13.512;2023-03-04T04:55:00;-0.90;99.90
10828;DHT22;5467;59.334;13.512;2023-03-04T04:57:28;-1.00;99.90
10828;DHT22;5467;59.334;13.512;2023-03-04T04:59:55;-1.00;99.90
10828;DHT22;5467;59.334;13.512;2023-03-04T05:02:23;-1.00;99.90
10828;DHT22;5467;59.334;13.512;2023-03-04T05:04:50;-0.90;99.90
10828;DHT22;5467;59.334;13.512;2023-03-04T05:07:17;-1.00;99.90
10828;DHT22;5467;59.334;13.512;2023-03-04T05:09:45;-1.00;99.90
10828;DHT22;5467;59.334;13.512;2023-03-04T05:12:12;-1.00;99.90
10828;DHT22;5467;59.334;13.512;2023-03-04T05:14:39;-1.00;99.90
10828;DHT22;5467;59.334;13.512;2023-03-04T05:17:06;-1.10;99.90
10828;DHT22;5467;59.334;13.512;2023-03-04T05:19:34;-1.00;99.90
10828;DHT22;5467;59.334;13.512;2023-03-04T05:22:01;-1.00;99.90
10828;DHT22;5467;59.334;13.512;2023-03-04T05:24:29;-1.10;99.90
10828;DHT22;5467;59.334;13.512;2023-03-04T05:26:56;-1.10;99.90
10828;DHT22;5467;59.334;13.512;2023-03-04T05:29:23;-1.20;99.90
10828;DHT22;5467;59.334;13.512;2023-03-04T05:31:52;-1.20;99.90
10828;DHT22;5467;59.334;13.512;2023-03-04T05:34:19;-1.30;99.90
10828;DHT22;5467;59.334;13.512;2023-03-04T05:36:48;-1.30;99.90
10828;DHT22;5467;59.334;13.512;2023-03-04T05:39:15;-1.20;99.90
10828;DHT22;5467;59.334;13.512;2023-03-04T05:41:42;-1.20;99.90
10828;DHT22;5467;59.334;13.512;2023-03-04T05:44:09;-1.30;99.90
10828;DHT22;5467;59.334;13.512;2023-03-04T05:46:36;-1.40;99.90
10828;DHT22;5467;59.334;13.512;2023-03-04T05:49:04;-1.40;99.90
10828;DHT22;5467;59.334;13.512;2023-03-04T05:51:31;-1.30;99.90
10828;DHT22;5467;59.334;13.512;2023-03-04T05:53:59;-1.30;99.90
10828;DHT22;5467;59.334;13.512;2023-03-04T05:56:26;-1.30;99.90
10828;DHT22;5467;59.334;13.512;2023-03-04T05:58:56;-1.30;99.90
10828;DHT22;5467;59.334;13.512;2023-03-04T06:01:24;-1.30;99.90
10828;DHT22;5467;59.334;13.512;2023-03-04T06:03:51;-1.40;99.90
10828;DHT22;5467;59.334;13.512;2023-03-04T06:06:18;-1.30;99.90
10828;DHT22;5467;59.334;13.512;2023-03-04T06:08:45;-1.30;99.90
10828;DHT22;5467;59.334;13.512;2023-03-04T06:11:14;-1.30;99.90
10828;DHT22;5467;59.334;13.512;2023-03-04T06:13:41;-1.40;99.90
10828;DHT22;5467;59.334;13.512;2023-03-04T06:16:08;-1.50;99.90
10828;DHT22;5467;59.334;13.512;2023-03-04T06:18:36;-1.40;99.90
10828;DHT22;5467;59.334;13.512;2023-03-04T06:21:04;-1.50;99.90
10828;DHT22;5467;59.334;13.512;2023-03-04T06:23:31;-1.50;99.90
10828;DHT22;5467;59.334;13.512;2023-03-04T06:25:59;-1.60;99.90
10828;DHT22;5467;59.334;13.512;2023-03-04T06:28:28;-1.60;99.90
10828;DHT22;5467;59.334;13.512;2023-03-04T06:30:56;-1.50;99.90
10828;DHT22;5467;59.334;13.512;2023-03-04T06:33:23;-1.50;99.90
10828;DHT22;5467;59.334;13.512;2023-03-04T06:35:53;-1.50;99.90
10828;DHT22;5467;59.334;13.512;2023-03-04T06:38:21;-1.40;99.90
10828;DHT22;5467;59.334;13.512;2023-03-04T06:40:48;-1.40;99.90
10828;DHT22;5467;59.334;13.512;2023-03-04T06:43:19;-1.40;99.90
10828;DHT22;5467;59.334;13.512;2023-03-04T06:45:48;-1.40;99.90
10828;DHT22;5467;59.334;13.512;2023-03-04T06:48:15;-1.40;99.90
10828;DHT22;5467;59.334;13.512;2023-03-04T06:50:42;-1.40;99.90
10828;DHT22;5467;59.334;13.512;2023-03-04T06:53:09;-1.40;99.90
10828;DHT22;5467;59.334;13.512;2023-03-04T06:55:36;-1.30;99.90
10828;DHT22;5467;59.334;13.512;2023-03-04T06:58:03;-1.30;99.90
10828;DHT22;5467;59.334;13.512;2023-03-04T07:00:30;-1.30;99.90
10828;DHT22;5467;59.334;13.512;2023-03-04T07:02:59;-1.30;99.90
10828;DHT22;5467;59.334;13.512;2023-03-04T07:05:26;-1.20;99.90
10828;DHT22;5467;59.334;13.512;2023-03-04T07:07:53;-1.30;99.90
10828;DHT22;5467;59.334;13.512;2023-03-04T07:10:21;-1.20;99.90
10828;DHT22;5467;59.334;13.512;2023-03-04T07:12:48;-1.20;99.90
10828;DHT22;5467;59.334;13.512;2023-03-04T07:15:15;-1.30;99.90
10828;DHT22;5467;59.334;13.512;2023-03-04T07:17:42;-1.20;99.90
10828;DHT22;5467;59.334;13.512;2023-03-04T07:20:12;-1.20;99.90
10828;DHT22;5467;59.334;13.512;2023-03-04T07:22:39;-1.20;99.90
10828;DHT22;5467;59.334;13.512;2023-03-04T07:25:07;-1.20;99.90
10828;DHT22;5467;59.334;13.512;2023-03-04T07:27:34;-1.40;99.90
10828;DHT22;5467;59.334;13.512;2023-03-04T07:30:03;-1.20;99.90
10828;DHT22;5467;59.334;13.512;2023-03-04T07:32:31;-1.20;99.90
10828;DHT22;5467;59.334;13.512;2023-03-04T07:34:59;-1.10;99.90
10828;DHT22;5467;59.334;13.512;2023-03-04T07:37:27;-1.20;99.90
10828;DHT22;5467;59.334;13.512;2023-03-04T07:39:54;-1.10;99.90
10828;DHT22;5467;59.334;13.512;2023-03-04T07:42:21;-1.10;99.90
10828;DHT22;5467;59.334;13.512;2023-03-04T07:44:48;-1.10;99.90
10828;DHT22;5467;59.334;13.512;2023-03-04T07:47:16;-1.00;99.90
10828;DHT22;5467;59.334;13.512;2023-03-04T07:49:43;-0.90;99.90
10828;DHT22;5467;59.334;13.512;2023-03-04T07:52:10;-0.90;99.90
10828;DHT22;5467;59.334;13.512;2023-03-04T07:54:40;-0.80;99.90
10828;DHT22;5467;59.334;13.512;2023-03-04T07:57:07;-0.80;99.90
10828;DHT22;5467;59.334;13.512;2023-03-04T07:59:34;-0.70;99.90
10828;DHT22;5467;59.334;13.512;2023-03-04T08:02:01;-0.70;99.90
10828;DHT22;5467;59.334;13.512;2023-03-04T08:04:28;-0.70;99.90
10828;DHT22;5467;59.334;13.512;2023-03-04T08:06:56;-0.60;99.90
10828;DHT22;5467;59.334;13.512;2023-03-04T08:09:23;-0.50;99.90
10828;DHT22;5467;59.334;13.512;2023-03-04T08:11:52;-0.40;99.90
10828;DHT22;5467;59.334;13.512;2023-03-04T08:14:19;-0.40;99.90
10828;DHT22;5467;59.334;13.512;2023-03-04T08:16:46;-0.40;99.90
10828;DHT22;5467;59.334;13.512;2023-03-04T08:19:13;-0.30;99.90
10828;DHT22;5467;59.334;13.512;2023-03-04T08:21:40;-0.30;99.90
10828;DHT22;5467;59.334;13.512;2023-03-04T08:24:09;-0.20;99.90
10828;DHT22;5467;59.334;13.512;2023-03-04T08:26:38;-0.20;99.90
10828;DHT22;5467;59.334;13.512;2023-03-04T08:29:10;-0.10;99.90
10828;DHT22;5467;59.334;13.512;2023-03-04T08:31:38;-0.10;99.90
10828;DHT22;5467;59.334;13.512;2023-03-04T08:34:06;0.10;99.90
10828;DHT22;5467;59.334;13.512;2023-03-04T08:36:35;0.30;99.90
10828;DHT22;5467;59.334;13.512;2023-03-04T08:39:03;0.20;99.90
10828;DHT22;5467;59.334;13.512;2023-03-04T08:41:30;0.10;99.90
10828;DHT22;5467;59.334;13.512;2023-03-04T08:43:59;0.10;99.90
10828;DHT22;5467;59.334;13.512;2023-03-04T08:46:28;0.20;99.90
10828;DHT22;5467;59.334;13.512;2023-03-04T08:48:55;0.30;99.90
10828;DHT22;5467;59.334;13.512;2023-03-04T08:51:22;0.40;99.90
10828;DHT22;5467;59.334;13.512;2023-03-04T08:53:50;0.40;99.90
10828;DHT22;5467;59.334;13.512;2023-03-04T08:56:17;0.50;99.90
10828;DHT22;5467;59.334;13.512;2023-03-04T08:58:44;0.60;99.90
10828;DHT22;5467;59.334;13.512;2023-03-04T09:01:13;0.70;99.90
10828;DHT22;5467;59.334;13.512;2023-03-04T09:03:42;0.80;99.90
10828;DHT22;5467;59.334;13.512;2023-03-04T09:06:10;0.90;99.90
10828;DHT22;5467;59.334;13.512;2023-03-04T09:08:38;1.00;99.90
10828;DHT22;5467;59.334;13.512;2023-03-04T09:11:05;0.90;99.90
10828;DHT22;5467;59.334;13.512;2023-03-04T09:13:32;0.80;99.90
10828;DHT22;5467;59.334;13.512;2023-03-04T09:16:00;0.70;99.90
10828;DHT22;5467;59.334;13.512;2023-03-04T09:18:28;0.70;99.90
10828;DHT22;5467;59.334;13.512;2023-03-04T09:20:56;0.80;99.90
10828;DHT22;5467;59.334;13.512;2023-03-04T09:23:23;1.00;99.90
10828;DHT22;5467;59.334;13.512;2023-03-04T09:25:50;1.10;99.90
10828;DHT22;5467;59.334;13.512;2023-03-04T09:28:18;1.00;99.90
10828;DHT22;5467;59.334;13.512;2023-03-04T09:30:46;1.20;99.90
10828;DHT22;5467;59.334;13.512;2023-03-04T09:33:13;1.20;99.90
10828;DHT22;5467;59.334;13.512;2023-03-04T09:35:40;1.20;99.90
10828;DHT22;5467;59.334;13.512;2023-03-04T09:38:09;1.10;99.90
10828;DHT22;5467;59.334;13.512;2023-03-04T09:40:40;1.20;99.90
10828;DHT22;5467;59.334;13.512;2023-03-04T09:43:16;1.40;99.90
10828;DHT22;5467;59.334;13.512;2023-03-04T09:45:48;1.50;99.90
10828;DHT22;5467;59.334;13.512;2023-03-04T09:48:19;1.50;99.90
10828;DHT22;5467;59.334;13.512;2023-03-04T09:50:54;1.30;99.90
10828;DHT22;5467;59.334;13.512;2023-03-04T09:53:34;1.20;99.90
10828;DHT22;5467;59.334;13.512;2023-03-04T09:56:05;1.20;99.90
10828;DHT22;5467;59.334;13.512;2023-03-04T09:58:41;1.30;99.90
10828;DHT22;5467;59.334;13.512;2023-03-04T10:01:16;1.50;99.90
10828;DHT22;5467;59.334;13.512;2023-03-04T10:03:48;1.60;99.90
10828;DHT22;5467;59.334;13.512;2023-03-04T10:06:19;1.60;99.90
10828;DHT22;5467;59.334;13.512;2023-03-04T10:08:53;1.70;99.90
10828;DHT22;5467;59.334;13.512;2023-03-04T10:11:24;1.70;99.90
10828;DHT22;5467;59.334;13.512;2023-03-04T10:14:02;1.80;99.90
10828;DHT22;5467;59.334;13.512;2023-03-04T10:16:35;1.70;99.90
10828;DHT22;5467;59.334;13.512;2023-03-04T10:19:21;1.90;99.90
10828;DHT22;5467;59.334;13.512;2023-03-04T10:21:51;1.90;99.90
10828;DHT22;5467;59.334;13.512;2023-03-04T10:24:24;2.00;99.90
10828;DHT22;5467;59.334;13.512;2023-03-04T10:26:57;1.90;99.90
10828;DHT22;5467;59.334;13.512;2023-03-04T10:29:27;2.00;99.90
10828;DHT22;5467;59.334;13.512;2023-03-04T10:31:56;2.20;99.90
10828;DHT22;5467;59.334;13.512;2023-03-04T10:34:23;2.30;99.90
10828;DHT22;5467;59.334;13.512;2023-03-04T10:36:55;2.30;99.90
10828;DHT22;5467;59.334;13.512;2023-03-04T10:39:27;2.30;99.90
10828;DHT22;5467;59.334;13.512;2023-03-04T10:42:00;2.30;99.90
10828;DHT22;5467;59.334;13.512;2023-03-04T10:44:28;2.40;99.90
10828;DHT22;5467;59.334;13.512;2023-03-04T10:46:56;2.50;99.90
10828;DHT22;5467;59.334;13.512;2023-03-04T10:49:26;2.60;99.90
10828;DHT22;5467;59.334;13.512;2023-03-04T10:52:00;2.60;99.90
10828;DHT22;5467;59.334;13.512;2023-03-04T10:54:31;2.60;99.90
10828;DHT22;5467;59.334;13.512;2023-03-04T10:57:02;2.50;99.90
10828;DHT22;5467;59.334;13.512;2023-03-04T10:59:39;2.60;99.90
10828;DHT22;5467;59.334;13.512;2023-03-04T11:02:20;2.50;99.90
10828;DHT22;5467;59.334;13.512;2023-03-04T11:05:04;2.40;99.90
10828;DHT22;5467;59.334;13.512;2023-03-04T11:07:38;2.40;99.90
10828;DHT22;5467;59.334;13.512;2023-03-04T11:10:15;2.40;99.90
10828;DHT22;5467;59.334;13.512;2023-03-04T11:12:48;2.50;99.90
10828;DHT22;5467;59.334;13.512;2023-03-04T11:15:20;2.60;99.90
10828;DHT22;5467;59.334;13.512;2023-03-04T11:17:53;2.70;99.90
10828;DHT22;5467;59.334;13.512;2023-03-04T11:20:29;2.80;99.90
10828;DHT22;5467;59.334;13.512;2023-03-04T11:23:02;2.70;99.90
10828;DHT22;5467;59.334;13.512;2023-03-04T11:25:33;2.60;99.90
10828;DHT22;5467;59.334;13.512;2023-03-04T11:28:03;2.60;99.90
10828;DHT22;5467;59.334;13.512;2023-03-04T11:30:37;2.60;99.90
10828;DHT22;5467;59.334;13.512;2023-03-04T11:33:18;2.70;99.90
10828;DHT22;5467;59.334;13.512;2023-03-04T11:36:10;2.80;99.90
10828;DHT22;5467;59.334;13.512;2023-03-04T11:38:43;2.90;99.90
10828;DHT22;5467;59.334;13.512;2023-03-04T11:41:16;3.00;99.90
10828;DHT22;5467;59.334;13.512;2023-03-04T11:43:45;3.10;99.90
10828;DHT22;5467;59.334;13.512;2023-03-04T11:46:51;3.10;99.90
10828;DHT22;5467;59.334;13.512;2023-03-04T11:49:48;3.00;99.90
10828;DHT22;5467;59.334;13.512;2023-03-04T11:52:35;3.00;99.90
10828;DHT22;5467;59.334;13.512;2023-03-04T11:55:25;2.90;99.40
10828;DHT22;5467;59.334;13.512;2023-03-04T11:58:04;2.80;99.30
10828;DHT22;5467;59.334;13.512;2023-03-04T12:00:39;2.90;99.40
10828;DHT22;5467;59.334;13.512;2023-03-04T12:03:40;2.80;99.60
10828;DHT22;5467;59.334;13.512;2023-03-04T12:06:11;2.80;98.80
10828;DHT22;5467;59.334;13.512;2023-03-04T12:08:52;2.80;98.60
10828;DHT22;5467;59.334;13.512;2023-03-04T12:11:27;3.00;99.80
10828;DHT22;5467;59.334;13.512;2023-03-04T12:14:11;3.10;99.90
10828;DHT22;5467;59.334;13.512;2023-03-04T12:16:54;3.10;98.60
10828;DHT22;5467;59.334;13.512;2023-03-04T12:19:31;3.20;99.50
10828;DHT22;5467;59.334;13.512;2023-03-04T12:22:18;3.40;99.10
10828;DHT22;5467;59.334;13.512;2023-03-04T12:25:07;3.20;99.30
10828;DHT22;5467;59.334;13.512;2023-03-04T12:27:44;3.30;98.30
10828;DHT22;5467;59.334;13.512;2023-03-04T12:30:25;3.30;98.30
10828;DHT22;5467;59.334;13.512;2023-03-04T12:33:02;3.30;97.70
10828;DHT22;5467;59.334;13.512;2023-03-04T12:35:37;3.30;98.10
10828;DHT22;5467;59.334;13.512;2023-03-04T12:41:16;3.30;98.00
10828;DHT22;5467;59.334;13.512;2023-03-04T12:43:52;3.20;98.80
10828;DHT22;5467;59.334;13.512;2023-03-04T12:46:30;3.30;97.90
10828;DHT22;5467;59.334;13.512;2023-03-04T12:49:21;3.10;98.60
10828;DHT22;5467;59.334;13.512;2023-03-04T12:52:00;3.10;97.90
10828;DHT22;5467;59.334;13.512;2023-03-04T12:54:31;3.30;97.60
10828;DHT22;5467;59.334;13.512;2023-03-04T12:57:01;3.30;97.80
10828;DHT22;5467;59.334;13.512;2023-03-04T12:59:34;3.20;97.70
10828;DHT22;5467;59.334;13.512;2023-03-04T13:02:24;3.20;97.70
10828;DHT22;5467;59.334;13.512;2023-03-04T13:05:06;3.20;98.30
10828;DHT22;5467;59.334;13.512;2023-03-04T13:07:40;3.30;97.30
10828;DHT22;5467;59.334;13.512;2023-03-04T13:10:12;3.30;96.80
10828;DHT22;5467;59.334;13.512;2023-03-04T13:12:47;3.20;96.50
10828;DHT22;5467;59.334;13.512;2023-03-04T13:15:25;3.30;97.10
10828;DHT22;5467;59.334;13.512;2023-03-04T13:17:55;3.30;96.30
10828;DHT22;5467;59.334;13.512;2023-03-04T13:20:32;3.40;97.10
10828;DHT22;5467;59.334;13.512;2023-03-04T13:23:00;3.40;96.80
10828;DHT22;5467;59.334;13.512;2023-03-04T13:25:39;3.50;97.20
10828;DHT22;5467;59.334;13.512;2023-03-04T13:28:17;3.40;96.50
10828;DHT22;5467;59.334;13.512;2023-03-04T13:31:17;3.40;96.70
10828;DHT22;5467;59.334;13.512;2023-03-04T13:33:58;3.30;96.60
10828;DHT22;5467;59.334;13.512;2023-03-04T13:39:32;3.40;96.90
10828;DHT22;5467;59.334;13.512;2023-03-04T13:42:00;3.50;96.60
10828;DHT22;5467;59.334;13.512;2023-03-04T13:50:37;3.20;96.50
10828;DHT22;5467;59.334;13.512;2023-03-04T13:53:32;3.40;96.60
10828;DHT22;5467;59.334;13.512;2023-03-04T13:58:52;3.40;96.50
10828;DHT22;5467;59.334;13.512;2023-03-04T14:01:28;3.40;97.40
10828;DHT22;5467;59.334;13.512;2023-03-04T14:03:57;3.30;96.70
10828;DHT22;5467;59.334;13.512;2023-03-04T14:06:27;3.00;94.80
10828;DHT22;5467;59.334;13.512;2023-03-04T14:08:55;3.00;96.00
10828;DHT22;5467;59.334;13.512;2023-03-04T14:11:27;3.10;95.20
10828;DHT22;5467;59.334;13.512;2023-03-04T14:13:57;3.10;95.90
10828;DHT22;5467;59.334;13.512;2023-03-04T14:16:27;3.10;95.60
10828;DHT22;5467;59.334;13.512;2023-03-04T14:19:02;3.20;95.80
10828;DHT22;5467;59.334;13.512;2023-03-04T14:21:33;3.10;96.20
10828;DHT22;5467;59.334;13.512;2023-03-04T14:24:04;3.00;95.80
10828;DHT22;5467;59.334;13.512;2023-03-04T14:26:32;3.10;96.20
10828;DHT22;5467;59.334;13.512;2023-03-04T14:28:59;3.00;95.70
10828;DHT22;5467;59.334;13.512;2023-03-04T14:31:29;3.00;96.60
10828;DHT22;5467;59.334;13.512;2023-03-04T14:33:58;2.90;96.20
10828;DHT22;5467;59.334;13.512;2023-03-04T14:36:29;2.90;95.70
10828;DHT22;5467;59.334;13.512;2023-03-04T14:39:03;2.80;96.20
10828;DHT22;5467;59.334;13.512;2023-03-04T14:41:33;3.00;96.60
10828;DHT22;5467;59.334;13.512;2023-03-04T14:44:07;3.00;95.20
10828;DHT22;5467;59.334;13.512;2023-03-04T14:46:38;2.90;95.80
10828;DHT22;5467;59.334;13.512;2023-03-04T14:49:10;2.80;95.60
10828;DHT22;5467;59.334;13.512;2023-03-04T14:51:42;2.70;95.90
10828;DHT22;5467;59.334;13.512;2023-03-04T14:54:32;2.60;95.70
10828;DHT22;5467;59.334;13.512;2023-03-04T14:57:01;2.60;96.10
10828;DHT22;5467;59.334;13.512;2023-03-04T14:59:42;2.60;96.90
10828;DHT22;5467;59.334;13.512;2023-03-04T15:02:24;2.60;96.70
10828;DHT22;5467;59.334;13.512;2023-03-04T15:04:58;2.60;95.70
10828;DHT22;5467;59.334;13.512;2023-03-04T15:07:30;2.60;96.10
10828;DHT22;5467;59.334;13.512;2023-03-04T15:10:02;2.50;96.00
10828;DHT22;5467;59.334;13.512;2023-03-04T15:12:33;2.50;96.10
10828;DHT22;5467;59.334;13.512;2023-03-04T15:15:02;2.50;96.40
10828;DHT22;5467;59.334;13.512;2023-03-04T15:17:32;2.40;96.80
10828;DHT22;5467;59.334;13.512;2023-03-04T15:20:24;2.40;96.90
10828;DHT22;5467;59.334;13.512;2023-03-04T15:22:57;2.40;96.50
10828;DHT22;5467;59.334;13.512;2023-03-04T15:25:26;2.30;97.10
10828;DHT22;5467;59.334;13.512;2023-03-04T15:27:53;2.30;98.00
10828;DHT22;5467;59.334;13.512;2023-03-04T15:30:23;2.30;97.50
10828;DHT22;5467;59.334;13.512;2023-03-04T15:32:52;2.20;98.10
10828;DHT22;5467;59.334;13.512;2023-03-04T15:35:20;2.10;97.70
10828;DHT22;5467;59.334;13.512;2023-03-04T15:37:49;2.10;97.80
10828;DHT22;5467;59.334;13.512;2023-03-04T15:40:28;1.90;97.30
10828;DHT22;5467;59.334;13.512;2023-03-04T15:42:58;1.90;98.40
10828;DHT22;5467;59.334;13.512;2023-03-04T15:45:28;1.90;97.90
10828;DHT22;5467;59.334;13.512;2023-03-04T15:47:55;1.80;97.70
10828;DHT22;5467;59.334;13.512;2023-03-04T15:50:27;1.80;98.00
10828;DHT22;5467;59.334;13.512;2023-03-04T15:52:56;1.70;98.70
10828;DHT22;5467;59.334;13.512;2023-03-04T15:55:24;1.70;98.10
10828;DHT22;5467;59.334;13.512;2023-03-04T15:57:55;1.70;98.90
10828;DHT22;5467;59.334;13.512;2023-03-04T16:00:23;1.70;97.80
10828;DHT22;5467;59.334;13.512;2023-03-04T16:02:51;1.70;97.90
10828;DHT22;5467;59.334;13.512;2023-03-04T16:05:18;1.70;98.20
10828;DHT22;5467;59.334;13.512;2023-03-04T16:07:48;1.70;98.10
10828;DHT22;5467;59.334;13.512;2023-03-04T16:10:21;1.70;98.40
10828;DHT22;5467;59.334;13.512;2023-03-04T16:12:49;1.70;98.20
10828;DHT22;5467;59.334;13.512;2023-03-04T16:15:19;1.60;98.10